Time;durP1;ratioP1;P1;durP2;ratioP2;P2;SDS_P1;SDS_P2;PMS_P1;PMS_P2;Temp;Humidity;BMP_temperature;BMP_pressure;BME280_temperature;BME280_humidity;BME280_pressure;Samples;Min_cycle;Max_cycle;Signal;HPM_P1;HPM_P2
2021/01/16 00:01:07;;;;;;;21.00;10.47;;;-0.10;79.90;;;0.32;66.68;98596.72;5043369;28;20056;-43
2021/01/16 00:03:34;;;;;;;18.03;9.87;;;-0.10;79.90;;;0.32;66.80;98601.13;5044416;28;20067;-42
2021/01/16 00:06:03;;;;;;;19.37;9.93;;;-0.10;80.10;;;0.35;66.37;98595.72;5043394;28;20079;-42
2021/01/16 00:08:32;;;;;;;21.73;10.50;;;-0.20;80.10;;;0.31;66.57;98599.41;5044367;28;20049;-42
2021/01/16 00:11:00;;;;;;;20.37;9.67;;;-0.20;80.20;;;0.36;66.51;98600.03;5044310;28;20045;-43
2021/01/16 00:13:33;;;;;;;22.73;10.93;;;-0.10;80.10;;;0.39;66.56;98595.50;5042849;28;20367;-44
2021/01/16 00:16:03;;;;;;;21.17;10.50;;;0.00;79.90;;;0.44;66.30;98599.66;5043660;28;20049;-43
2021/01/16 00:18:31;;;;;;;20.23;10.33;;;0.00;79.80;;;0.46;66.93;98598.66;5043752;28;20345;-42
2021/01/16 00:20:59;;;;;;;20.83;10.50;;;0.00;79.70;;;0.43;66.92;98590.09;5043741;28;20059;-43
2021/01/16 00:23:28;;;;;;;20.87;10.07;;;-0.10;80.00;;;0.41;67.31;98591.94;5041717;28;20232;-42
2021/01/16 00:25:57;;;;;;;19.00;10.50;;;-0.10;80.50;;;0.35;66.50;98588.72;5043294;28;20049;-43
2021/01/16 00:28:29;;;;;;;19.37;10.43;;;-0.10;80.40;;;0.34;66.46;98583.56;5043965;28;20053;-43
2021/01/16 00:31:02;;;;;;;26.10;12.17;;;-0.20;80.70;;;0.27;67.31;98588.25;5043745;28;20076;-42
2021/01/16 00:33:34;;;;;;;20.17;11.57;;;-0.20;80.60;;;0.24;67.59;98585.75;5043875;28;20045;-42
2021/01/16 00:36:05;;;;;;;24.17;10.80;;;-0.20;80.70;;;0.17;67.98;98579.13;5042685;28;20053;-42
2021/01/16 00:38:39;;;;;;;19.97;10.43;;;-0.30;80.90;;;0.28;67.22;98576.84;5042768;28;20057;-42
2021/01/16 00:41:07;;;;;;;22.73;10.63;;;-0.20;80.80;;;0.24;67.84;98577.91;5043692;28;20049;-42
2021/01/16 00:43:35;;;;;;;20.77;10.87;;;-0.20;80.60;;;0.26;67.36;98583.09;5042275;28;20240;-42
2021/01/16 00:46:02;;;;;;;21.40;10.17;;;-0.20;80.70;;;0.29;67.38;98585.53;5043078;28;20053;-42
2021/01/16 00:48:30;;;;;;;19.93;9.93;;;-0.20;80.60;;;0.32;67.78;98582.78;5043267;28;20076;-43
2021/01/16 00:51:00;;;;;;;19.83;11.10;;;-0.10;80.40;;;0.36;67.62;98579.94;5043516;28;20042;-43
2021/01/16 00:53:37;;;;;;;21.13;10.03;;;-0.10;80.20;;;0.39;67.59;98582.41;5042186;28;20379;-43
2021/01/16 00:56:11;;;;;;;23.47;10.47;;;-0.10;80.50;;;0.39;66.76;98576.31;5041807;28;20064;-43
2021/01/16 00:59:01;;;;;;;20.77;10.60;;;-0.10;80.50;;;0.28;68.09;98581.22;5041551;28;20059;-42
2021/01/16 01:02:04;;;;;;;22.33;10.90;;;-0.20;80.50;;;0.32;67.55;98580.16;5035535;28;20095;-42
2021/01/16 01:04:31;;;;;;;20.70;10.03;;;-0.20;80.70;;;0.28;67.33;98583.84;5042023;28;20053;-44
2021/01/16 01:07:00;;;;;;;25.50;10.80;;;-0.20;81.00;;;0.31;67.21;98584.56;5042759;28;20333;-43
2021/01/16 01:09:28;;;;;;;20.97;11.50;;;-0.20;80.80;;;0.26;67.58;98583.91;5043075;28;20337;-43
2021/01/16 01:11:55;;;;;;;24.20;11.00;;;-0.20;81.10;;;0.28;67.53;98586.47;5043073;28;20046;-42
2021/01/16 01:14:22;;;;;;;21.60;10.93;;;-0.20;81.00;;;0.30;67.85;98584.63;5042959;28;20046;-42
2021/01/16 01:16:50;;;;;;;23.00;11.10;;;-0.20;80.90;;;0.31;67.05;98578.44;5042560;28;20050;-43
2021/01/16 01:19:17;;;;;;;23.10;11.10;;;-0.10;80.90;;;0.23;68.14;98581.44;5042940;28;20055;-44
2021/01/16 01:21:44;;;;;;;21.27;10.87;;;-0.20;80.90;;;0.29;67.95;98581.16;5043301;28;20049;-42
2021/01/16 01:24:12;;;;;;;25.10;10.83;;;-0.20;81.00;;;0.30;67.18;98580.22;5042754;28;20345;-42
2021/01/16 01:26:39;;;;;;;24.17;11.53;;;-0.20;81.10;;;0.33;66.84;98579.22;5040952;28;20045;-42
2021/01/16 01:29:07;;;;;;;22.37;10.57;;;-0.10;81.00;;;0.39;66.86;98577.16;5042659;28;20060;-42
2021/01/16 01:31:37;;;;;;;26.13;11.17;;;0.00;80.90;;;0.42;67.10;98578.78;5042765;28;20042;-44
2021/01/16 01:34:05;;;;;;;19.87;10.27;;;0.00;80.40;;;0.42;67.87;98584.03;5042516;28;20045;-43
2021/01/16 01:36:37;;;;;;;22.07;11.37;;;-0.10;80.60;;;0.44;67.38;98581.34;5042241;28;20056;-42
2021/01/16 01:39:05;;;;;;;24.57;10.53;;;-0.10;80.80;;;0.32;67.60;98583.63;5042585;28;20049;-42
2021/01/16 01:41:40;;;;;;;21.37;10.90;;;-0.20;81.10;;;0.39;67.80;98581.56;5043017;28;20068;-43
2021/01/16 01:44:08;;;;;;;21.60;10.60;;;-0.10;81.30;;;0.42;67.67;98584.03;5041257;28;20245;-42
2021/01/16 01:46:37;;;;;;;21.70;11.47;;;-0.10;81.10;;;0.41;67.51;98587.59;5041072;28;20049;-44
2021/01/16 01:49:06;;;;;;;19.63;10.93;;;-0.10;80.90;;;0.44;67.57;98578.72;5042417;28;20041;-42
2021/01/16 01:51:35;;;;;;;22.93;11.57;;;0.00;80.90;;;0.44;67.29;98576.94;5041308;28;20045;-44
2021/01/16 01:54:04;;;;;;;22.10;11.17;;;-0.10;81.00;;;0.45;67.22;98577.81;5041263;28;20354;-44
2021/01/16 01:56:36;;;;;;;18.17;10.40;;;-0.10;81.00;;;0.46;67.43;98585.56;5041779;28;20367;-43
2021/01/16 01:59:06;;;;;;;24.97;11.77;;;-0.10;81.00;;;0.48;67.58;98578.47;5041167;28;20240;-43
2021/01/16 02:01:38;;;;;;;22.67;11.27;;;0.00;81.10;;;0.51;66.99;98580.13;5031245;28;20095;-42
2021/01/16 02:04:07;;;;;;;21.15;10.45;;;0.10;80.80;;;0.56;67.20;98578.09;5028808;28;20049;-42
2021/01/16 02:06:35;;;;;;;26.97;12.20;;;0.10;80.50;;;0.57;66.92;98587.69;5041022;28;20222;-42
2021/01/16 02:09:04;;;;;;;20.40;10.47;;;0.20;80.20;;;0.53;67.52;98584.34;5041277;28;20045;-43
2021/01/16 02:11:32;;;;;;;21.07;10.73;;;0.10;80.00;;;0.49;67.91;98580.19;5041381;28;20266;-45
2021/01/16 02:13:59;;;;;;;23.27;11.00;;;0.00;80.40;;;0.50;66.73;98583.66;5041317;28;20057;-44
2021/01/16 02:16:38;;;;;;;21.80;11.03;;;0.00;80.60;;;0.47;67.53;98589.91;5039758;28;20355;-42
2021/01/16 02:19:07;;;;;;;17.00;9.17;;;0.00;80.60;;;0.48;66.87;98580.25;5053646;28;20048;-44
2021/01/16 02:21:38;;;;;;;22.57;11.27;;;0.00;80.60;;;0.51;67.42;98575.72;5040817;28;20041;-42
2021/01/16 02:24:17;;;;;;;20.43;10.60;;;0.00;80.50;;;0.54;67.79;98577.31;5041582;28;20053;-44
2021/01/16 02:27:35;;;;;;;24.30;10.60;;;0.00;80.60;;;0.58;66.72;98571.00;5039940;28;20257;-42
2021/01/16 02:30:05;;;;;;;26.90;12.07;;;0.20;80.60;;;0.56;67.83;98571.09;5012014;28;20058;-43
2021/01/16 02:32:35;;;;;;;23.50;11.87;;;0.20;80.00;;;0.59;67.78;98570.94;5041349;28;20067;-42
2021/01/16 02:35:05;;;;;;;23.23;11.20;;;0.20;80.00;;;0.61;67.50;98573.50;5041237;28;20057;-43
2021/01/16 02:37:51;;;;;;;20.60;10.93;;;0.20;80.00;;;0.60;67.18;98571.78;5041761;28;20041;-42
2021/01/16 02:43:47;;;;;;;22.33;11.33;;;0.20;80.00;;;0.66;67.28;98563.63;5039569;28;20053;-42
2021/01/16 02:46:36;;;;;;;18.57;10.20;;;0.20;79.70;;;0.62;67.05;98571.72;5039864;28;20357;-43
2021/01/16 02:49:53;;;;;;;23.03;10.80;;;0.20;79.50;;;0.63;67.33;98568.19;5040702;28;20068;-44
2021/01/16 02:52:22;;;;;;;20.07;12.00;;;0.10;80.00;;;0.67;67.54;98577.59;5040593;28;20061;-41
2021/01/16 02:54:52;;;;;;;25.70;11.37;;;0.20;79.80;;;0.65;67.09;98575.03;5041199;28;20056;-42
2021/01/16 02:57:19;;;;;;;22.17;10.67;;;0.20;79.70;;;0.63;67.41;98563.78;5040516;28;20049;-42
2021/01/16 02:59:47;;;;;;;20.73;11.00;;;0.20;79.80;;;0.64;67.50;98569.84;5045470;28;20059;-43
2021/01/16 03:02:17;;;;;;;23.60;11.83;;;0.20;79.60;;;0.64;67.04;98569.84;5045633;28;20045;-44
2021/01/16 03:04:45;;;;;;;23.60;11.93;;;0.20;79.70;;;0.65;66.93;98563.72;5045224;28;20052;-45
2021/01/16 03:07:16;;;;;;;21.47;11.70;;;0.20;79.60;;;0.65;67.00;98563.72;5044884;28;20049;-44
2021/01/16 03:09:43;;;;;;;20.53;10.07;;;0.20;79.40;;;0.63;67.54;98566.41;5045506;28;20067;-42
2021/01/16 03:12:11;;;;;;;22.33;10.93;;;0.10;79.50;;;0.58;66.67;98566.63;5045332;28;20053;-43
2021/01/16 03:14:55;;;;;;;21.33;11.47;;;0.10;79.70;;;0.53;67.45;98567.78;5045155;28;20059;-43
2021/01/16 03:17:41;;;;;;;24.20;11.10;;;0.00;80.00;;;0.54;67.25;98569.47;5045259;28;20056;-43
2021/01/16 03:20:20;;;;;;;24.00;11.10;;;0.10;80.20;;;0.55;67.12;98558.91;5044519;28;20051;-45
2021/01/16 03:22:53;;;;;;;19.60;10.70;;;0.10;79.80;;;0.56;67.54;98568.50;5043807;28;20068;-42
2021/01/16 03:25:24;;;;;;;21.80;10.33;;;0.10;79.70;;;0.47;67.25;98573.34;5043779;28;20056;-43
2021/01/16 03:27:54;;;;;;;21.90;10.90;;;0.00;79.60;;;0.51;67.27;98573.09;5044691;28;20046;-42
2021/01/16 03:30:23;;;;;;;22.57;10.53;;;0.00;79.90;;;0.53;67.08;98571.25;5043975;28;20223;-42
2021/01/16 03:32:51;;;;;;;21.03;10.03;;;0.10;80.00;;;0.56;66.69;98571.09;5043494;28;20052;-42
2021/01/16 03:35:22;;;;;;;20.17;10.10;;;0.10;79.80;;;0.48;67.42;98572.41;5044565;28;20045;-42
2021/01/16 03:37:55;;;;;;;22.03;10.87;;;0.00;79.50;;;0.47;67.17;98565.47;5044833;28;20116;-42
2021/01/16 03:40:23;;;;;;;23.70;11.00;;;0.00;79.90;;;0.49;67.57;98563.63;5043880;28;20048;-42
2021/01/16 03:42:50;;;;;;;18.93;9.87;;;0.00;79.70;;;0.38;67.19;98558.91;5043361;28;20079;-42
2021/01/16 03:45:21;;;;;;;23.93;11.77;;;-0.10;79.80;;;0.33;67.63;98563.50;5042188;28;20222;-42
2021/01/16 03:47:50;;;;;;;21.73;10.27;;;-0.10;80.30;;;0.31;67.61;98563.59;5043272;28;20045;-43
2021/01/16 03:50:22;;;;;;;20.98;10.80;;;-0.20;80.70;;;0.35;67.24;98567.75;5044487;28;20052;-42
2021/01/16 03:52:50;;;;;;;24.27;10.47;;;-0.20;80.50;;;0.38;67.39;98559.75;5044621;28;20195;-42
2021/01/16 03:55:17;;;;;;;20.83;11.00;;;-0.10;80.20;;;0.33;66.98;98566.13;5044266;28;20188;-42
2021/01/16 03:57:44;;;;;;;20.90;10.63;;;-0.20;80.00;;;0.36;67.79;98560.75;5044544;28;20052;-42
2021/01/16 04:00:12;;;;;;;22.87;10.87;;;-0.20;79.90;;;0.36;66.72;98564.22;5044779;28;20053;-42
2021/01/16 04:02:39;;;;;;;24.77;12.20;;;-0.20;79.90;;;0.35;67.32;98556.41;5043370;28;20053;-42
2021/01/16 04:05:08;;;;;;;22.27;11.37;;;-0.20;79.80;;;0.39;67.65;98565.84;5042676;28;20363;-43
2021/01/16 04:07:35;;;;;;;20.40;11.57;;;-0.10;79.80;;;0.32;67.58;98560.03;5043182;28;20055;-42
2021/01/16 04:10:04;;;;;;;19.80;10.70;;;-0.10;79.50;;;0.29;66.83;98561.97;5043150;28;20045;-42
2021/01/16 04:12:32;;;;;;;22.60;11.70;;;-0.20;79.60;;;0.35;67.71;98564.28;5044225;28;20237;-43
2021/01/16 04:15:01;;;;;;;23.20;11.13;;;-0.20;79.70;;;0.26;67.69;98565.59;5043779;28;20037;-42
2021/01/16 04:17:28;;;;;;;24.17;12.10;;;-0.20;79.50;;;0.15;67.14;98570.50;5043861;28;20069;-42
2021/01/16 04:19:56;;;;;;;23.03;11.17;;;-0.40;79.90;;;0.24;66.84;98574.44;5044249;28;20052;-43
2021/01/16 04:22:23;;;;;;;19.80;10.30;;;-0.30;80.00;;;0.20;67.50;98571.13;5043969;28;20055;-44
2021/01/16 04:24:51;;;;;;;22.20;11.00;;;-0.30;79.90;;;0.25;66.76;98573.50;5043518;28;20049;-43
2021/01/16 04:27:18;;;;;;;21.67;10.67;;;-0.30;79.80;;;0.29;66.73;98570.69;5043891;28;20041;-42
2021/01/16 04:29:48;;;;;;;20.27;10.83;;;-0.20;79.80;;;0.32;67.05;98575.75;5043868;28;20324;-42
2021/01/16 04:32:15;;;;;;;22.43;12.17;;;-0.10;79.70;;;0.36;67.49;98573.84;5043826;28;20252;-43
2021/01/16 04:34:43;;;;;;;25.00;12.00;;;-0.10;80.00;;;0.39;67.42;98571.94;5043405;28;20041;-42
2021/01/16 04:37:10;;;;;;;25.50;12.50;;;-0.10;79.10;;;0.42;66.97;98580.56;5043555;28;20364;-43
2021/01/16 04:39:37;;;;;;;24.83;12.77;;;0.00;78.70;;;0.35;66.88;98572.13;5043756;28;20050;-43
2021/01/16 04:42:08;;;;;;;22.67;11.47;;;-0.20;78.80;;;0.38;66.63;98569.38;5043594;28;20072;-43
2021/01/16 04:44:35;;;;;;;22.77;11.70;;;-0.10;79.10;;;0.36;66.33;98561.59;5041087;28;20056;-44
2021/01/16 04:47:05;;;;;;;24.10;11.50;;;-0.10;79.00;;;0.34;67.35;98571.28;5043512;28;20039;-44
2021/01/16 04:49:33;;;;;;;21.07;11.27;;;-0.20;79.10;;;0.39;66.78;98558.00;5043456;28;20061;-44
2021/01/16 04:52:02;;;;;;;22.20;11.97;;;-0.10;79.30;;;0.44;67.52;98566.44;5042445;28;20047;-42
2021/01/16 04:54:32;;;;;;;21.33;11.20;;;0.00;78.90;;;0.47;66.89;98561.06;5043332;28;20207;-42
2021/01/16 04:56:59;;;;;;;22.83;10.13;;;0.10;78.70;;;0.49;66.57;98567.09;5041841;28;20045;-42
2021/01/16 04:59:27;;;;;;;20.50;11.20;;;0.10;78.10;;;0.51;66.96;98565.25;5043218;28;20071;-45
2021/01/16 05:01:57;;;;;;;24.67;11.27;;;0.10;78.10;;;0.51;66.57;98560.00;5043197;28;20045;-42
2021/01/16 05:04:30;;;;;;;22.73;10.43;;;0.10;78.10;;;0.51;67.09;98572.25;5041367;28;20052;-44
2021/01/16 05:07:01;;;;;;;19.10;11.37;;;0.00;77.80;;;0.50;66.82;98560.06;5040996;28;20060;-42
2021/01/16 05:09:30;;;;;;;24.17;11.10;;;0.00;78.10;;;0.50;66.90;98567.94;5025598;28;20254;-42
2021/01/16 05:12:24;;;;;;;21.03;10.27;;;0.00;78.50;;;0.48;66.95;98554.06;5041276;28;20045;-42
2021/01/16 05:15:23;;;;;;;22.75;10.98;;;-0.10;78.70;;;0.41;66.97;98556.16;5042331;28;20059;-43
2021/01/16 05:18:08;;;;;;;21.63;10.93;;;0.00;78.30;;;0.35;66.60;98561.66;5042907;28;20052;-44
2021/01/16 05:20:39;;;;;;;22.97;10.80;;;-0.20;78.70;;;0.34;66.76;98559.97;5042006;28;20063;-42
2021/01/16 05:23:14;;;;;;;19.60;9.83;;;-0.20;78.70;;;0.24;66.50;98556.13;5041340;28;20222;-43
2021/01/16 05:25:53;;;;;;;26.13;11.68;;;-0.30;78.40;;;0.32;66.52;98556.59;5041995;28;20056;-42
2021/01/16 05:28:25;;;;;;;23.43;11.37;;;-0.20;78.90;;;0.28;66.99;98557.66;5041463;28;20261;-42
2021/01/16 05:31:06;;;;;;;23.43;10.43;;;-0.20;78.50;;;0.31;67.00;98560.97;5052093;22;20044;-43
2021/01/16 05:33:39;;;;;;;24.10;12.10;;;-0.20;78.40;;;0.34;66.39;98566.06;5022708;28;20041;-42
2021/01/16 05:36:09;;;;;;;26.17;12.20;;;-0.20;78.50;;;0.34;66.76;98562.59;5021976;28;20054;-42
2021/01/16 05:38:45;;;;;;;22.30;11.10;;;-0.20;79.20;;;0.36;66.96;98560.75;5022948;28;20060;-42
2021/01/16 05:41:15;;;;;;;26.33;11.70;;;-0.10;78.50;;;0.35;66.28;98564.28;5021677;28;20053;-43
2021/01/16 05:43:43;;;;;;;23.90;10.60;;;-0.10;78.50;;;0.13;67.28;98572.34;5004079;28;20248;-42
2021/01/16 05:46:14;;;;;;;23.47;10.93;;;-0.20;78.10;;;0.28;66.48;98568.13;5022249;28;20241;-42
2021/01/16 05:48:42;;;;;;;19.80;10.47;;;-0.20;78.60;;;0.31;66.91;98567.97;5022102;28;20342;-42
2021/01/16 05:51:09;;;;;;;21.47;10.13;;;-0.20;78.40;;;0.34;66.50;98558.19;5021655;28;20057;-42
2021/01/16 05:53:38;;;;;;;25.03;11.80;;;-0.10;78.40;;;0.36;66.68;98561.59;5022531;28;20369;-42
2021/01/16 05:56:08;;;;;;;26.60;11.27;;;-0.10;78.30;;;0.38;66.68;98559.75;5021002;28;20477;-42
2021/01/16 05:58:36;;;;;;;19.07;10.33;;;-0.10;77.80;;;0.38;67.04;98551.03;5020976;28;20053;-42
2021/01/16 06:01:08;;;;;;;24.67;12.23;;;-0.10;78.30;;;0.42;66.34;98554.38;5021675;28;20244;-42
2021/01/16 06:03:38;;;;;;;23.17;11.70;;;-0.10;78.30;;;0.27;66.77;98550.72;5021771;28;20056;-42
2021/01/16 06:06:12;;;;;;;23.50;11.77;;;-0.20;78.10;;;0.32;66.38;98544.31;5021826;28;20046;-42
2021/01/16 06:08:51;;;;;;;13.57;8.15;;;-0.10;78.90;;;0.27;67.11;98548.09;5022270;28;20329;-42
2021/01/16 06:11:23;;;;;;;20.40;11.53;;;-0.20;77.90;;;0.31;66.90;98553.13;5022446;28;20045;-42
2021/01/16 06:13:54;;;;;;;24.10;11.90;;;-0.20;78.10;;;0.31;66.90;98547.88;5022276;28;20041;-43
2021/01/16 06:16:22;;;;;;;22.33;11.13;;;-0.20;78.30;;;0.29;67.11;98543.63;5020476;28;20056;-42
2021/01/16 06:18:56;;;;;;;19.40;10.87;;;-0.20;78.40;;;0.33;66.77;98542.53;5022188;28;20337;-43
2021/01/16 06:21:30;;;;;;;19.23;11.30;;;-0.10;78.70;;;0.41;67.24;98544.78;5021171;28;20050;-44
2021/01/16 06:24:00;;;;;;;24.03;11.97;;;0.00;78.30;;;0.44;66.95;98536.78;5004346;28;20057;-43
2021/01/16 06:26:28;;;;;;;22.63;11.83;;;0.00;77.30;;;0.47;66.16;98542.72;5020795;28;20053;-43
2021/01/16 06:29:03;;;;;;;23.63;11.07;;;0.00;77.80;;;0.46;66.41;98543.66;5004129;28;20054;-45
2021/01/16 06:31:33;;;;;;;20.50;11.03;;;0.00;77.30;;;0.45;67.02;98539.34;5022008;28;20050;-44
2021/01/16 06:34:05;;;;;;;26.87;12.97;;;-0.10;78.00;;;0.46;66.81;98530.53;5021482;28;20049;-45
2021/01/16 06:36:37;;;;;;;26.50;13.23;;;0.00;78.10;;;0.50;66.42;98539.94;5021563;28;20241;-44
2021/01/16 06:39:08;;;;;;;26.93;13.37;;;0.00;77.90;;;0.52;67.02;98532.84;5021606;28;20058;-44
2021/01/16 06:41:38;;;;;;;25.60;12.43;;;0.10;77.70;;;0.54;66.58;98533.66;5021631;28;20187;-44
2021/01/16 06:44:15;;;;;;;26.67;13.43;;;0.10;77.40;;;0.56;65.87;98528.31;5020131;28;20249;-42
2021/01/16 06:46:49;;;;;;;36.87;17.60;;;0.10;77.40;;;0.59;66.76;98531.63;5020549;28;20058;-42
2021/01/16 06:49:27;;;;;;;;;;;0.20;77.30;;;0.59;66.36;98538.66;5022232;28;20042;-47
2021/01/16 06:51:58;;;;;;;21.30;10.60;;;0.10;77.30;;;0.59;66.30;98533.41;5021549;28;19930;-46
2021/01/16 06:54:34;;;;;;;22.83;11.83;;;0.20;77.50;;;0.63;66.92;98526.25;5021528;28;20068;-45
2021/01/16 06:57:08;;;;;;;20.60;10.63;;;0.20;77.20;;;0.64;66.83;98523.56;5020629;28;20050;-42
2021/01/16 06:59:44;;;;;;;23.08;11.00;;;0.20;77.30;;;0.64;66.77;98528.78;5021792;28;20057;-43
2021/01/16 07:02:34;;;;;;;22.90;12.20;;;0.20;77.40;;;0.64;65.93;98527.94;5021731;28;20338;-43
2021/01/16 07:05:18;;;;;;;21.30;11.03;;;0.20;77.30;;;0.66;66.90;98536.56;5021333;28;20038;-43
2021/01/16 07:07:52;;;;;;;20.20;11.15;;;0.30;77.30;;;0.68;66.03;98534.69;5021110;28;20060;-45
2021/01/16 07:10:28;;;;;;;18.87;10.77;;;0.20;76.70;;;0.69;66.44;98536.41;5021721;28;20041;-46
2021/01/16 07:12:59;;;;;;;23.43;12.13;;;0.20;77.00;;;0.66;66.14;98536.56;5019948;28;20050;-43
2021/01/16 07:15:31;;;;;;;19.77;10.80;;;0.20;77.10;;;0.67;65.58;98533.88;5021694;28;20050;-44
2021/01/16 07:18:03;;;;;;;18.23;10.53;;;0.20;76.90;;;0.64;65.80;98534.03;5021570;28;20234;-45
2021/01/16 07:20:30;;;;;;;21.57;12.00;;;0.10;77.30;;;0.57;65.92;98538.72;5021616;28;20246;-43
2021/01/16 07:23:02;;;;;;;22.73;11.17;;;0.00;77.80;;;0.49;66.18;98540.03;5021644;28;20393;-45
2021/01/16 07:25:30;;;;;;;24.37;12.97;;;-0.10;78.10;;;0.42;66.91;98539.47;5020186;28;20052;-42
2021/01/16 07:27:58;;;;;;;23.27;11.50;;;-0.10;78.40;;;0.46;66.86;98537.56;5020518;28;20041;-43
2021/01/16 07:30:26;;;;;;;26.63;14.37;;;-0.10;78.80;;;0.37;66.56;98541.50;5020374;28;20296;-45
2021/01/16 07:33:00;;;;;;;29.63;13.83;;;-0.20;79.20;;;0.34;66.25;98547.72;5021467;28;20056;-43
2021/01/16 07:35:28;;;;;;;21.77;11.50;;;-0.20;79.70;;;0.33;67.42;98545.16;5020216;28;20056;-42
2021/01/16 07:37:56;;;;;;;21.83;11.67;;;-0.20;79.80;;;0.29;66.60;98549.75;5021685;28;20054;-44
2021/01/16 07:40:28;;;;;;;24.63;12.00;;;-0.30;80.20;;;0.28;67.01;98557.66;5021486;28;20050;-43
2021/01/16 07:43:01;;;;;;;22.33;11.63;;;-0.30;80.40;;;0.24;67.61;98556.97;5020288;28;20054;-41
2021/01/16 07:45:39;;;;;;;23.77;11.50;;;-0.30;81.00;;;0.28;66.75;98547.19;5037027;28;20048;-41
2021/01/16 07:48:07;;;;;;;21.93;12.33;;;-0.20;80.80;;;0.30;67.33;98553.19;5042887;28;20077;-43
2021/01/16 07:50:38;;;;;;;18.87;11.37;;;-0.20;80.70;;;0.34;66.81;98552.13;5043807;28;20057;-43
2021/01/16 07:53:08;;;;;;;24.33;11.73;;;-0.10;80.70;;;0.34;67.33;98552.13;5043483;28;20046;-43
2021/01/16 07:55:35;;;;;;;21.67;12.43;;;-0.10;80.90;;;0.24;67.11;98554.34;5044222;28;20049;-42
2021/01/16 07:58:33;;;;;;;22.03;11.10;;;-0.30;81.10;;;0.23;67.99;98554.41;5043692;28;20440;-42
2021/01/16 08:01:15;;;;;;;22.90;12.93;;;-0.30;81.60;;;0.10;68.68;98556.78;5044536;28;20059;-43
2021/01/16 08:04:01;;;;;;;26.47;11.93;;;-0.40;82.10;;;0.06;67.79;98550.84;5044307;28;20049;-42
2021/01/16 08:06:31;;;;;;;24.57;13.97;;;-0.50;83.00;;;-0.04;68.56;98547.81;5041933;28;20248;-43
2021/01/16 08:09:21;;;;;;;22.67;12.33;;;-0.50;83.80;;;-0.03;68.06;98539.03;5043417;28;20050;-43
2021/01/16 08:11:50;;;;;;;25.97;12.57;;;-0.50;83.60;;;0.06;68.35;98547.34;5044448;28;20045;-43
2021/01/16 08:14:21;;;;;;;23.77;12.93;;;-0.40;83.00;;;-0.02;68.78;98542.47;5043133;28;20052;-43
2021/01/16 08:16:58;;;;;;;26.77;13.93;;;-0.50;82.70;;;0.04;68.47;98539.59;5043752;28;20045;-42
2021/01/16 08:20:06;;;;;;;26.03;14.93;;;-0.40;82.90;;;-0.11;69.20;98533.31;5042961;28;20041;-42
2021/01/16 08:22:39;;;;;;;21.67;12.40;;;-0.50;82.90;;;0.04;68.70;98536.09;5026770;28;20048;-44
2021/01/16 08:25:15;;;;;;;23.53;13.10;;;-0.40;82.90;;;0.14;68.10;98532.16;5042550;28;20077;-42
2021/01/16 08:27:55;;;;;;;26.73;13.67;;;-0.30;82.40;;;0.19;67.90;98535.38;5044174;28;20046;-42
2021/01/16 08:30:28;;;;;;;26.27;12.73;;;-0.20;82.60;;;0.21;68.72;98532.69;5025567;28;20064;-43
2021/01/16 08:33:10;;;;;;;24.97;12.43;;;-0.20;82.00;;;0.22;68.13;98531.78;5043967;28;20337;-42
2021/01/16 08:35:37;;;;;;;32.70;18.57;;;-0.20;82.30;;;0.22;68.02;98527.38;5043472;28;20308;-42
2021/01/16 08:38:16;;;;;;;27.37;14.90;;;-0.20;82.10;;;0.28;67.90;98537.53;5043805;28;20238;-42
2021/01/16 08:41:02;;;;;;;25.40;13.33;;;-0.10;82.20;;;0.30;68.60;98524.38;5043899;28;20048;-42
2021/01/16 08:43:43;;;;;;;24.10;11.33;;;-0.10;81.60;;;0.32;67.90;98526.00;5042506;28;20053;-44
2021/01/16 08:46:29;;;;;;;23.17;12.57;;;-0.10;81.10;;;0.33;68.51;98522.47;5042664;28;20369;-42
2021/01/16 08:49:03;;;;;;;27.50;13.80;;;-0.20;81.10;;;0.16;68.02;98528.53;5043284;28;20042;-42
2021/01/16 08:51:39;;;;;;;20.90;11.43;;;-0.30;81.40;;;0.14;67.81;98524.28;5043679;28;20345;-41
2021/01/16 08:54:23;;;;;;;21.17;11.73;;;-0.40;81.90;;;0.20;67.99;98521.38;5041159;28;20045;-42
2021/01/16 08:56:53;;;;;;;23.27;12.23;;;-0.30;81.50;;;0.21;68.05;98517.81;5042431;28;20232;-44
2021/01/16 08:59:29;;;;;;;25.50;11.97;;;-0.30;81.90;;;0.24;68.20;98522.91;5043295;28;20353;-43
2021/01/16 09:02:16;;;;;;;21.60;11.57;;;-0.20;81.30;;;0.24;67.82;98522.06;5043431;28;20260;-42
2021/01/16 09:04:45;;;;;;;24.83;13.10;;;-0.20;81.50;;;0.16;68.22;98525.06;5042079;28;20060;-41
2021/01/16 09:07:23;;;;;;;20.67;11.47;;;-0.30;81.20;;;0.20;68.38;98526.59;5042267;28;20059;-41
2021/01/16 09:10:04;;;;;;;26.47;13.00;;;-0.20;81.10;;;0.14;68.03;98534.75;5041217;28;20046;-41
2021/01/16 09:12:39;;;;;;;24.57;13.47;;;-0.30;81.20;;;-0.20;69.68;98534.56;5042358;28;20049;-42
2021/01/16 09:15:28;;;;;;;26.27;14.10;;;-0.60;82.70;;;-0.07;68.93;98539.25;5042711;28;20042;-42
2021/01/16 09:18:04;;;;;;;28.77;14.83;;;-0.50;83.70;;;-0.14;69.12;98537.84;5042845;28;20052;-41
2021/01/16 09:20:41;;;;;;;27.80;13.67;;;-0.60;83.60;;;-0.29;69.14;98555.09;5042182;28;20052;-41
2021/01/16 09:23:19;;;;;;;28.13;16.37;;;-0.70;83.50;;;-0.38;70.32;98550.31;5043018;28;20049;-41
2021/01/16 09:26:03;;;;;;;25.50;13.03;;;-0.80;84.20;;;-0.25;69.15;98549.66;5024285;28;20248;-41
2021/01/16 09:28:56;;;;;;;24.70;13.47;;;-0.70;84.00;;;-0.32;70.32;98561.34;5043149;28;20041;-41
2021/01/16 09:31:50;;;;;;;23.07;13.10;;;-0.70;83.30;;;-0.36;69.73;98567.63;5042625;28;20340;-42
2021/01/16 09:34:18;;;;;;;26.13;13.40;;;-0.70;84.10;;;-0.36;69.70;98562.41;5022124;28;20061;-42
2021/01/16 09:36:56;;;;;;;25.73;14.20;;;-0.70;83.60;;;-0.30;70.29;98566.50;5042214;28;20345;-42
2021/01/16 09:39:33;;;;;;;23.50;12.53;;;-0.70;83.70;;;-0.47;70.75;98562.03;5042655;28;20061;-41
2021/01/16 09:42:03;;;;;;;24.57;12.70;;;-0.80;84.30;;;-0.36;70.06;98570.25;5042503;28;20232;-41
2021/01/16 09:44:39;;;;;;;23.60;12.87;;;-0.80;84.00;;;-0.47;70.59;98564.66;5041792;28;20060;-41
2021/01/16 09:47:28;;;;;;;20.87;12.13;;;-0.80;83.40;;;-0.34;69.52;98563.19;5041554;28;20059;-41
2021/01/16 09:50:02;;;;;;;23.33;12.07;;;-0.70;83.90;;;-0.39;70.12;98554.69;5017549;28;20044;-41
2021/01/16 09:52:32;;;;;;;22.35;12.38;;;-0.80;83.90;;;-0.48;69.75;98558.56;5019269;28;20056;-41
2021/01/16 09:54:59;;;;;;;24.07;12.90;;;-0.90;84.00;;;-0.36;69.98;98557.16;5022325;28;20046;-41
2021/01/16 09:57:40;;;;;;;24.63;12.10;;;-0.80;83.70;;;-0.41;70.20;98551.28;5021774;28;20052;-41
2021/01/16 10:00:10;;;;;;;26.40;14.13;;;-0.70;83.50;;;-0.48;70.23;98552.50;5017889;28;20049;-41
2021/01/16 10:02:56;;;;;;;26.43;13.83;;;-0.80;83.70;;;-0.35;69.86;98550.16;5021958;28;20057;-42
2021/01/16 10:06:03;;;;;;;24.47;12.77;;;-0.70;83.30;;;-0.36;70.14;98545.84;5021396;28;20057;-41
2021/01/16 10:08:33;;;;;;;19.33;11.63;;;-0.70;83.30;;;-0.37;69.88;98542.38;5012744;28;20065;-41
2021/01/16 10:11:02;;;;;;;23.10;12.17;;;-0.70;82.30;;;-0.35;69.85;98542.31;5021333;28;20048;-42
2021/01/16 10:13:34;;;;;;;22.27;11.90;;;-0.70;82.60;;;-0.45;69.90;98529.63;5015712;28;20056;-42
2021/01/16 10:16:06;;;;;;;27.33;15.53;;;-0.70;82.50;;;-0.40;69.84;98525.06;5021237;28;20048;-41
2021/01/16 10:18:36;;;;;;;24.93;12.90;;;-0.80;83.00;;;-0.26;69.45;98508.69;5021758;28;20046;-41
2021/01/16 10:21:19;;;;;;;25.03;13.20;;;-0.60;82.50;;;-0.28;69.18;98507.94;5036177;28;20058;-41
2021/01/16 10:23:47;;;;;;;23.13;12.87;;;-0.60;82.60;;;-0.21;69.72;98506.72;5022981;28;20064;-41
2021/01/16 10:26:16;;;;;;;26.87;14.03;;;-0.60;83.10;;;-0.27;69.13;98504.41;5017221;28;20050;-41
2021/01/16 10:28:53;;;;;;;22.27;12.07;;;-0.60;82.50;;;-0.21;68.65;98487.56;5018639;28;20053;-41
2021/01/16 10:31:26;;;;;;;23.07;11.97;;;-0.50;80.40;;;-0.13;69.23;98484.59;5040587;28;20053;-41
2021/01/16 10:34:06;;;;;;;25.48;12.55;;;-0.50;80.80;;;-0.07;69.11;98485.13;5026537;28;20045;-41
2021/01/16 10:36:35;;;;;;;20.00;10.97;;;-0.40;79.70;;;-0.08;68.56;98483.44;5020430;28;20137;-41
2021/01/16 10:39:16;;;;;;;21.03;11.93;;;-0.50;79.20;;;0.02;68.07;98475.13;5021599;28;20261;-41
2021/01/16 10:41:46;;;;;;;22.33;11.53;;;-0.30;80.40;;;0.12;68.58;98482.47;5020777;28;20056;-41
2021/01/16 10:44:19;;;;;;;22.03;11.33;;;-0.20;79.70;;;0.10;68.26;98479.06;5020095;28;20056;-41